sensor_id;sensor_type;location;lat;lon;timestamp;pressure;altitude;pressure_sealevel;temperature;humidity
71666;BME280;59503;53.486;10.196;2022-12-24T00:01:19;100474.28;;;4.20;100.00
71666;BME280;59503;53.486;10.196;2022-12-24T00:03:45;100482.47;;;4.24;100.00
71666;BME280;59503;53.486;10.196;2022-12-24T00:06:22;100472.25;;;4.17;100.00
71666;BME280;59503;53.486;10.196;2022-12-24T00:08:48;100483.63;;;4.23;100.00
71666;BME280;59503;53.486;10.196;2022-12-24T00:11:15;100482.16;;;4.25;100.00
71666;BME280;59503;53.486;10.196;2022-12-24T00:13:40;100481.38;;;4.25;100.00
71666;BME280;59503;53.486;10.196;2022-12-24T00:16:06;100473.31;;;4.25;100.00
71666;BME280;59503;53.486;10.196;2022-12-24T00:18:31;100482.47;;;4.24;100.00
71666;BME280;59503;53.486;10.196;2022-12-24T00:20:57;100480.78;;;4.19;100.00
71666;BME280;59503;53.486;10.196;2022-12-24T00:23:22;100476.97;;;4.20;100.00
71666;BME280;59503;53.486;10.196;2022-12-24T00:25:48;100477.94;;;4.16;100.00
71666;BME280;59503;53.486;10.196;2022-12-24T00:28:14;100487.09;;;4.23;100.00
71666;BME280;59503;53.486;10.196;2022-12-24T00:30:41;100479.47;;;4.25;100.00
71666;BME280;59503;53.486;10.196;2022-12-24T00:33:07;100490.22;;;4.25;100.00
71666;BME280;59503;53.486;10.196;2022-12-24T00:35:33;100492.78;;;4.22;100.00
71666;BME280;59503;53.486;10.196;2022-12-24T00:37:59;100479.97;;;4.19;100.00
71666;BME280;59503;53.486;10.196;2022-12-24T00:40:24;100483.78;;;4.18;100.00
71666;BME280;59503;53.486;10.196;2022-12-24T00:42:50;100483.50;;;4.11;100.00
71666;BME280;59503;53.486;10.196;2022-12-24T00:45:15;100491.72;;;4.14;100.00
71666;BME280;59503;53.486;10.196;2022-12-24T00:47:41;100499.59;;;4.19;100.00
71666;BME280;59503;53.486;10.196;2022-12-24T00:50:07;100501.34;;;4.15;100.00
71666;BME280;59503;53.486;10.196;2022-12-24T00:52:33;100501.50;;;4.19;100.00
71666;BME280;59503;53.486;10.196;2022-12-24T00:54:58;100497.25;;;4.18;100.00
71666;BME280;59503;53.486;10.196;2022-12-24T00:57:24;100500.25;;;4.16;100.00
71666;BME280;59503;53.486;10.196;2022-12-24T00:59:49;100495.97;;;4.15;100.00
71666;BME280;59503;53.486;10.196;2022-12-24T01:02:14;100504.84;;;4.16;100.00
71666;BME280;59503;53.486;10.196;2022-12-24T01:04:40;100511.34;;;4.15;100.00
71666;BME280;59503;53.486;10.196;2022-12-24T01:07:24;100509.59;;;4.10;100.00
71666;BME280;59503;53.486;10.196;2022-12-24T01:09:49;100508.81;;;4.18;100.00
71666;BME280;59503;53.486;10.196;2022-12-24T01:12:15;100520.66;;;4.17;100.00
71666;BME280;59503;53.486;10.196;2022-12-24T01:14:40;100516.41;;;4.16;100.00
71666;BME280;59503;53.486;10.196;2022-12-24T01:17:06;100518.28;;;4.16;100.00
71666;BME280;59503;53.486;10.196;2022-12-24T01:19:32;100528.25;;;4.15;100.00
71666;BME280;59503;53.486;10.196;2022-12-24T01:21:58;100519.75;;;4.13;100.00
71666;BME280;59503;53.486;10.196;2022-12-24T01:24:23;100519.41;;;4.15;100.00
71666;BME280;59503;53.486;10.196;2022-12-24T01:26:49;100519.09;;;4.16;100.00
71666;BME280;59503;53.486;10.196;2022-12-24T01:29:15;100525.56;;;4.15;100.00
71666;BME280;59503;53.486;10.196;2022-12-24T01:31:40;100534.44;;;4.16;100.00
71666;BME280;59503;53.486;10.196;2022-12-24T01:34:06;100527.16;;;4.16;100.00
71666;BME280;59503;53.486;10.196;2022-12-24T01:36:32;100532.72;;;4.11;100.00
71666;BME280;59503;53.486;10.196;2022-12-24T01:38:57;100530.63;;;4.17;100.00
71666;BME280;59503;53.486;10.196;2022-12-24T01:41:23;100528.59;;;4.14;100.00
71666;BME280;59503;53.486;10.196;2022-12-24T01:44:18;100520.81;;;4.21;100.00
71666;BME280;59503;53.486;10.196;2022-12-24T01:46:44;100532.22;;;4.18;100.00
71666;BME280;59503;53.486;10.196;2022-12-24T01:49:12;100523.06;;;4.10;100.00
71666;BME280;59503;53.486;10.196;2022-12-24T01:51:43;100522.44;;;4.13;100.00
71666;BME280;59503;53.486;10.196;2022-12-24T01:54:16;100525.13;;;4.13;100.00
71666;BME280;59503;53.486;10.196;2022-12-24T01:56:46;100541.88;;;4.10;100.00
71666;BME280;59503;53.486;10.196;2022-12-24T01:59:15;100538.88;;;4.12;100.00
71666;BME280;59503;53.486;10.196;2022-12-24T02:01:43;100551.88;;;4.10;100.00
71666;BME280;59503;53.486;10.196;2022-12-24T02:04:31;100540.66;;;4.08;100.00
71666;BME280;59503;53.486;10.196;2022-12-24T02:06:58;100543.50;;;4.03;100.00
71666;BME280;59503;53.486;10.196;2022-12-24T02:09:24;100541.63;;;4.03;100.00
71666;BME280;59503;53.486;10.196;2022-12-24T02:11:49;100551.59;;;4.03;100.00
71666;BME280;59503;53.486;10.196;2022-12-24T02:14:17;100556.16;;;4.02;100.00
71666;BME280;59503;53.486;10.196;2022-12-24T02:25:01;100574.66;;;4.04;100.00
71666;BME280;59503;53.486;10.196;2022-12-24T02:30:15;100578.94;;;4.05;100.00
71666;BME280;59503;53.486;10.196;2022-12-24T02:38:02;100573.09;;;4.03;100.00
71666;BME280;59503;53.486;10.196;2022-12-24T02:40:38;100566.78;;;3.99;100.00
71666;BME280;59503;53.486;10.196;2022-12-24T02:43:09;100573.91;;;4.03;100.00
71666;BME280;59503;53.486;10.196;2022-12-24T02:45:39;100581.63;;;4.05;100.00
71666;BME280;59503;53.486;10.196;2022-12-24T02:48:05;100582.25;;;4.02;100.00
71666;BME280;59503;53.486;10.196;2022-12-24T02:50:31;100582.25;;;4.02;100.00
71666;BME280;59503;53.486;10.196;2022-12-24T02:52:56;100584.50;;;4.00;100.00
71666;BME280;59503;53.486;10.196;2022-12-24T02:55:39;100585.59;;;3.99;100.00
71666;BME280;59503;53.486;10.196;2022-12-24T03:06:33;100586.88;;;4.01;100.00
71666;BME280;59503;53.486;10.196;2022-12-24T03:09:13;100579.91;;;4.00;100.00
71666;BME280;59503;53.486;10.196;2022-12-24T03:11:45;100586.06;;;4.01;100.00
71666;BME280;59503;53.486;10.196;2022-12-24T03:14:14;100588.91;;;4.04;100.00
71666;BME280;59503;53.486;10.196;2022-12-24T03:16:41;100596.50;;;4.02;100.00
71666;BME280;59503;53.486;10.196;2022-12-24T03:19:06;100588.44;;;4.02;100.00
71666;BME280;59503;53.486;10.196;2022-12-24T03:21:34;100594.13;;;4.01;100.00
71666;BME280;59503;53.486;10.196;2022-12-24T03:24:00;100599.50;;;4.01;100.00
71666;BME280;59503;53.486;10.196;2022-12-24T03:26:28;100606.16;;;4.03;100.00
71666;BME280;59503;53.486;10.196;2022-12-24T03:28:54;100606.78;;;4.00;100.00
71666;BME280;59503;53.486;10.196;2022-12-24T03:31:20;100596.84;;;3.92;100.00
71666;BME280;59503;53.486;10.196;2022-12-24T03:33:45;100609.78;;;3.99;100.00
71666;BME280;59503;53.486;10.196;2022-12-24T03:36:11;100612.00;;;3.97;100.00
71666;BME280;59503;53.486;10.196;2022-12-24T03:38:37;100619.47;;;4.00;100.00
71666;BME280;59503;53.486;10.196;2022-12-24T03:41:03;100625.94;;;3.99;100.00
71666;BME280;59503;53.486;10.196;2022-12-24T03:43:28;100619.81;;;3.90;100.00
71666;BME280;59503;53.486;10.196;2022-12-24T03:45:54;100625.78;;;3.95;100.00
71666;BME280;59503;53.486;10.196;2022-12-24T03:48:19;100615.34;;;3.94;100.00
71666;BME280;59503;53.486;10.196;2022-12-24T03:50:45;100637.00;;;3.97;100.00
71666;BME280;59503;53.486;10.196;2022-12-24T03:53:10;100636.22;;;3.97;100.00
71666;BME280;59503;53.486;10.196;2022-12-24T03:55:37;100618.53;;;3.87;100.00
71666;BME280;59503;53.486;10.196;2022-12-24T03:58:02;100633.53;;;3.97;100.00
71666;BME280;59503;53.486;10.196;2022-12-24T04:00:28;100638.91;;;3.97;100.00
71666;BME280;59503;53.486;10.196;2022-12-24T04:02:53;100631.00;;;3.92;100.00
71666;BME280;59503;53.486;10.196;2022-12-24T04:05:19;100643.84;;;3.95;100.00
71666;BME280;59503;53.486;10.196;2022-12-24T04:07:45;100651.91;;;3.95;100.00
71666;BME280;59503;53.486;10.196;2022-12-24T04:10:12;100654.25;;;3.96;100.00
71666;BME280;59503;53.486;10.196;2022-12-24T04:12:38;100661.84;;;3.94;100.00
71666;BME280;59503;53.486;10.196;2022-12-24T04:15:04;100664.22;;;3.96;100.00
71666;BME280;59503;53.486;10.196;2022-12-24T04:17:30;100656.81;;;3.93;100.00
71666;BME280;59503;53.486;10.196;2022-12-24T04:19:55;100665.03;;;3.96;100.00
71666;BME280;59503;53.486;10.196;2022-12-24T04:22:21;100665.66;;;3.93;100.00
71666;BME280;59503;53.486;10.196;2022-12-24T04:24:46;100669.59;;;3.96;100.00
71666;BME280;59503;53.486;10.196;2022-12-24T04:27:13;100668.34;;;3.93;100.00
71666;BME280;59503;53.486;10.196;2022-12-24T04:29:38;100667.06;;;3.91;100.00
71666;BME280;59503;53.486;10.196;2022-12-24T04:32:04;100667.88;;;3.91;100.00
71666;BME280;59503;53.486;10.196;2022-12-24T04:34:29;100668.66;;;3.92;100.00
71666;BME280;59503;53.486;10.196;2022-12-24T04:36:55;100659.50;;;3.84;100.00
71666;BME280;59503;53.486;10.196;2022-12-24T04:39:20;100672.47;;;3.91;100.00
71666;BME280;59503;53.486;10.196;2022-12-24T04:41:45;100678.47;;;3.88;100.00
71666;BME280;59503;53.486;10.196;2022-12-24T04:44:11;100687.94;;;3.94;100.00
71666;BME280;59503;53.486;10.196;2022-12-24T04:46:36;100681.00;;;3.93;100.00
71666;BME280;59503;53.486;10.196;2022-12-24T04:49:02;100682.09;;;3.92;100.00
71666;BME280;59503;53.486;10.196;2022-12-24T04:51:27;100682.56;;;3.94;100.00
71666;BME280;59503;53.486;10.196;2022-12-24T04:53:54;100681.00;;;3.93;100.00
71666;BME280;59503;53.486;10.196;2022-12-24T04:56:22;100676.72;;;3.92;100.00
71666;BME280;59503;53.486;10.196;2022-12-24T04:58:49;100678.16;;;3.98;100.00
71666;BME280;59503;53.486;10.196;2022-12-24T05:01:23;100684.63;;;3.97;100.00
71666;BME280;59503;53.486;10.196;2022-12-24T05:03:50;100682.25;;;3.95;100.00
71666;BME280;59503;53.486;10.196;2022-12-24T05:06:18;100677.03;;;3.90;100.00
71666;BME280;59503;53.486;10.196;2022-12-24T05:08:44;100669.28;;;3.89;100.00
71666;BME280;59503;53.486;10.196;2022-12-24T05:11:09;100669.28;;;3.89;100.00
71666;BME280;59503;53.486;10.196;2022-12-24T05:13:39;100674.19;;;3.87;100.00
71666;BME280;59503;53.486;10.196;2022-12-24T05:16:05;100678.63;;;3.91;100.00
71666;BME280;59503;53.486;10.196;2022-12-24T05:18:30;100674.66;;;3.89;100.00
71666;BME280;59503;53.486;10.196;2022-12-24T05:20:55;100675.78;;;3.88;100.00
71666;BME280;59503;53.486;10.196;2022-12-24T05:23:23;100675.94;;;3.83;100.00
71666;BME280;59503;53.486;10.196;2022-12-24T05:26:16;100682.25;;;3.87;100.00
71666;BME280;59503;53.486;10.196;2022-12-24T05:28:49;100678.63;;;3.83;100.00
71666;BME280;59503;53.486;10.196;2022-12-24T05:31:14;100688.44;;;3.87;100.00
71666;BME280;59503;53.486;10.196;2022-12-24T05:33:40;100677.22;;;3.76;100.00
71666;BME280;59503;53.486;10.196;2022-12-24T05:36:05;100703.31;;;3.85;100.00
71666;BME280;59503;53.486;10.196;2022-12-24T05:38:31;100700.63;;;3.85;100.00
71666;BME280;59503;53.486;10.196;2022-12-24T05:40:56;100699.66;;;3.80;100.00
71666;BME280;59503;53.486;10.196;2022-12-24T05:43:22;100701.25;;;3.81;100.00
71666;BME280;59503;53.486;10.196;2022-12-24T05:45:47;100708.69;;;3.85;100.00
71666;BME280;59503;53.486;10.196;2022-12-24T05:48:12;100703.94;;;3.81;100.00
71666;BME280;59503;53.486;10.196;2022-12-24T05:50:39;100710.91;;;3.83;100.00
71666;BME280;59503;53.486;10.196;2022-12-24T05:53:05;100707.09;;;3.83;100.00
71666;BME280;59503;53.486;10.196;2022-12-24T05:55:30;100703.94;;;3.81;100.00
71666;BME280;59503;53.486;10.196;2022-12-24T05:57:56;100711.84;;;3.78;100.00
71666;BME280;59503;53.486;10.196;2022-12-24T06:00:21;100712.31;;;3.80;100.00
71666;BME280;59503;53.486;10.196;2022-12-24T06:02:47;100705.69;;;3.77;100.00
71666;BME280;59503;53.486;10.196;2022-12-24T06:05:12;100718.00;;;3.78;100.00
71666;BME280;59503;53.486;10.196;2022-12-24T06:07:38;100711.22;;;3.81;100.00
71666;BME280;59503;53.486;10.196;2022-12-24T06:10:04;100720.84;;;3.82;100.00
71666;BME280;59503;53.486;10.196;2022-12-24T06:12:30;100722.13;;;3.85;100.00
71666;BME280;59503;53.486;10.196;2022-12-24T06:14:55;100716.28;;;3.83;100.00
71666;BME280;59503;53.486;10.196;2022-12-24T06:17:21;100735.09;;;3.91;100.00
71666;BME280;59503;53.486;10.196;2022-12-24T06:19:46;100732.88;;;3.85;100.00
71666;BME280;59503;53.486;10.196;2022-12-24T06:22:11;100725.44;;;3.81;100.00
71666;BME280;59503;53.486;10.196;2022-12-24T06:24:37;100728.91;;;3.82;100.00
71666;BME280;59503;53.486;10.196;2022-12-24T06:27:02;100724.03;;;3.84;100.00
71666;BME280;59503;53.486;10.196;2022-12-24T06:29:28;100726.56;;;3.80;100.00
71666;BME280;59503;53.486;10.196;2022-12-24T06:31:53;100728.13;;;3.81;100.00
71666;BME280;59503;53.486;10.196;2022-12-24T06:34:18;100716.91;;;3.79;100.00
71666;BME280;59503;53.486;10.196;2022-12-24T06:36:44;100720.69;;;3.78;100.00
71666;BME280;59503;53.486;10.196;2022-12-24T06:39:09;100723.06;;;3.80;100.00
71666;BME280;59503;53.486;10.196;2022-12-24T06:41:35;100727.19;;;3.77;100.00
71666;BME280;59503;53.486;10.196;2022-12-24T06:44:00;100740.78;;;3.81;100.00
71666;BME280;59503;53.486;10.196;2022-12-24T06:46:25;100734.94;;;3.79;100.00
71666;BME280;59503;53.486;10.196;2022-12-24T06:48:54;100731.78;;;3.77;100.00
71666;BME280;59503;53.486;10.196;2022-12-24T06:51:20;100744.88;;;3.78;100.00
71666;BME280;59503;53.486;10.196;2022-12-24T06:53:47;100749.47;;;3.78;100.00
71666;BME280;59503;53.486;10.196;2022-12-24T06:56:15;100755.66;;;3.78;100.00
71666;BME280;59503;53.486;10.196;2022-12-24T06:58:40;100756.28;;;3.75;100.00
71666;BME280;59503;53.486;10.196;2022-12-24T07:01:09;100746.34;;;3.76;100.00
71666;BME280;59503;53.486;10.196;2022-12-24T07:03:35;100757.53;;;3.78;100.00
71666;BME280;59503;53.486;10.196;2022-12-24T07:06:00;100759.44;;;3.77;100.00
71666;BME280;59503;53.486;10.196;2022-12-24T07:08:26;100758.50;;;3.73;100.00
71666;BME280;59503;53.486;10.196;2022-12-24T07:10:51;100768.91;;;3.75;100.00
71666;BME280;59503;53.486;10.196;2022-12-24T07:13:17;100770.84;;;3.74;100.00
71666;BME280;59503;53.486;10.196;2022-12-24T07:15:43;100765.47;;;3.74;100.00
71666;BME280;59503;53.486;10.196;2022-12-24T07:18:09;100767.34;;;3.74;100.00
71666;BME280;59503;53.486;10.196;2022-12-24T07:20:35;100785.53;;;3.77;100.00
71666;BME280;59503;53.486;10.196;2022-12-24T07:23:00;100775.41;;;3.74;100.00
71666;BME280;59503;53.486;10.196;2022-12-24T07:25:26;100779.06;;;3.69;100.00
71666;BME280;59503;53.486;10.196;2022-12-24T07:27:51;100784.44;;;3.69;100.00
71666;BME280;59503;53.486;10.196;2022-12-24T07:30:17;100788.38;;;3.72;100.00
71666;BME280;59503;53.486;10.196;2022-12-24T07:32:42;100787.56;;;3.71;100.00
71666;BME280;59503;53.486;10.196;2022-12-24T07:35:08;100803.88;;;3.75;100.00
71666;BME280;59503;53.486;10.196;2022-12-24T07:37:34;100795.31;;;3.73;100.00
71666;BME280;59503;53.486;10.196;2022-12-24T07:40:00;100798.66;;;3.70;100.00
71666;BME280;59503;53.486;10.196;2022-12-24T07:42:26;100803.69;;;3.71;100.00
71666;BME280;59503;53.486;10.196;2022-12-24T07:44:51;100807.97;;;3.64;100.00
71666;BME280;59503;53.486;10.196;2022-12-24T07:47:17;100823.63;;;3.70;100.00
71666;BME280;59503;53.486;10.196;2022-12-24T07:49:42;100834.38;;;3.70;100.00
71666;BME280;59503;53.486;10.196;2022-12-24T07:52:07;100828.34;;;3.65;100.00
71666;BME280;59503;53.486;10.196;2022-12-24T07:54:33;100823.63;;;3.70;100.00
71666;BME280;59503;53.486;10.196;2022-12-24T07:56:58;100824.13;;;3.72;100.00
71666;BME280;59503;53.486;10.196;2022-12-24T07:59:24;100831.22;;;3.68;100.00
71666;BME280;59503;53.486;10.196;2022-12-24T08:01:49;100834.38;;;3.70;100.00
71666;BME280;59503;53.486;10.196;2022-12-24T08:04:15;100841.03;;;3.73;100.00
71666;BME280;59503;53.486;10.196;2022-12-24T08:06:40;100846.72;;;3.71;100.00
71666;BME280;59503;53.486;10.196;2022-12-24T08:09:06;100841.81;;;3.73;100.00
71666;BME280;59503;53.486;10.196;2022-12-24T08:11:31;100844.03;;;3.71;100.00
71666;BME280;59503;53.486;10.196;2022-12-24T08:13:56;100853.53;;;3.69;100.00
71666;BME280;59503;53.486;10.196;2022-12-24T08:16:22;100856.06;;;3.74;100.00
71666;BME280;59503;53.486;10.196;2022-12-24T08:18:47;100872.03;;;3.70;100.00
71666;BME280;59503;53.486;10.196;2022-12-24T08:21:13;100858.41;;;3.67;100.00
71666;BME280;59503;53.486;10.196;2022-12-24T08:23:38;100863.63;;;3.72;100.00
71666;BME280;59503;53.486;10.196;2022-12-24T08:26:08;100859.06;;;3.72;100.00
71666;BME280;59503;53.486;10.196;2022-12-24T08:28:35;100868.22;;;3.71;100.00
71666;BME280;59503;53.486;10.196;2022-12-24T08:31:00;100870.59;;;3.73;100.00
71666;BME280;59503;53.486;10.196;2022-12-24T08:33:26;100879.28;;;3.70;100.00
71666;BME280;59503;53.486;10.196;2022-12-24T08:35:54;100884.34;;;3.71;100.00
71666;BME280;59503;53.486;10.196;2022-12-24T08:38:20;100879.94;;;3.75;100.00
71666;BME280;59503;53.486;10.196;2022-12-24T08:40:46;100880.75;;;3.76;100.00
71666;BME280;59503;53.486;10.196;2022-12-24T08:43:14;100861.09;;;3.67;100.00
71666;BME280;59503;53.486;10.196;2022-12-24T08:45:40;100867.13;;;3.72;100.00
71666;BME280;59503;53.486;10.196;2022-12-24T08:48:07;100880.75;;;3.76;100.00
71666;BME280;59503;53.486;10.196;2022-12-24T08:50:33;100887.84;;;3.80;100.00
71666;BME280;59503;53.486;10.196;2022-12-24T08:52:58;100890.53;;;3.80;100.00
71666;BME280;59503;53.486;10.196;2022-12-24T08:55:24;100892.25;;;3.76;100.00
71666;BME280;59503;53.486;10.196;2022-12-24T08:57:49;100881.50;;;3.76;100.00
71666;BME280;59503;53.486;10.196;2022-12-24T09:00:15;100898.63;;;3.80;100.00
71666;BME280;59503;53.486;10.196;2022-12-24T09:02:41;100900.81;;;3.78;100.00
71666;BME280;59503;53.486;10.196;2022-12-24T09:05:06;100911.44;;;3.83;100.00
71666;BME280;59503;53.486;10.196;2022-12-24T09:07:32;100904.00;;;3.80;100.00
71666;BME280;59503;53.486;10.196;2022-12-24T09:09:57;100919.19;;;3.85;100.00
71666;BME280;59503;53.486;10.196;2022-12-24T09:12:23;100919.50;;;3.83;100.00
71666;BME280;59503;53.486;10.196;2022-12-24T09:14:52;100919.97;;;3.86;100.00
71666;BME280;59503;53.486;10.196;2022-12-24T09:17:19;100915.72;;;3.85;100.00
71666;BME280;59503;53.486;10.196;2022-12-24T09:19:45;100931.38;;;3.91;100.00
71666;BME280;59503;53.486;10.196;2022-12-24T09:22:11;100919.19;;;3.94;100.00
71666;BME280;59503;53.486;10.196;2022-12-24T09:24:36;100913.34;;;3.92;100.00
71666;BME280;59503;53.486;10.196;2022-12-24T09:27:02;100933.31;;;3.99;100.00
71666;BME280;59503;53.486;10.196;2022-12-24T09:29:29;100934.69;;;3.97;100.00
71666;BME280;59503;53.486;10.196;2022-12-24T09:31:54;100943.91;;;4.04;100.00
71666;BME280;59503;53.486;10.196;2022-12-24T09:34:20;100944.09;;;4.08;100.00
71666;BME280;59503;53.486;10.196;2022-12-24T09:36:46;100952.16;;;4.08;100.00
71666;BME280;59503;53.486;10.196;2022-12-24T09:39:12;100959.09;;;4.09;100.00
71666;BME280;59503;53.486;10.196;2022-12-24T09:41:40;100962.09;;;4.07;100.00
71666;BME280;59503;53.486;10.196;2022-12-24T09:47:00;100973.34;;;4.09;100.00
71666;BME280;59503;53.486;10.196;2022-12-24T09:49:36;100973.03;;;4.11;100.00
71666;BME280;59503;53.486;10.196;2022-12-24T09:52:09;100976.56;;;4.20;100.00
71666;BME280;59503;53.486;10.196;2022-12-24T09:54:43;100967.84;;;4.23;100.00
71666;BME280;59503;53.486;10.196;2022-12-24T09:57:22;100974.00;;;4.15;100.00
71666;BME280;59503;53.486;10.196;2022-12-24T09:59:50;100976.88;;;4.18;100.00
71666;BME280;59503;53.486;10.196;2022-12-24T10:02:17;100973.88;;;4.28;100.00
71666;BME280;59503;53.486;10.196;2022-12-24T10:04:44;100976.75;;;4.32;100.00
71666;BME280;59503;53.486;10.196;2022-12-24T10:07:30;100984.19;;;4.43;100.00
71666;BME280;59503;53.486;10.196;2022-12-24T10:10:43;100990.19;;;4.49;100.00
71666;BME280;59503;53.486;10.196;2022-12-24T10:13:22;100987.19;;;4.42;100.00
71666;BME280;59503;53.486;10.196;2022-12-24T10:26:47;101006.19;;;4.37;100.00
71666;BME280;59503;53.486;10.196;2022-12-24T10:29:20;101005.88;;;4.38;100.00
71666;BME280;59503;53.486;10.196;2022-12-24T10:34:37;101013.97;;;4.47;100.00
71666;BME280;59503;53.486;10.196;2022-12-24T10:37:05;101008.72;;;4.42;100.00
71666;BME280;59503;53.486;10.196;2022-12-24T10:39:30;101008.72;;;4.42;100.00
71666;BME280;59503;53.486;10.196;2022-12-24T10:41:58;101019.03;;;4.48;100.00
71666;BME280;59503;53.486;10.196;2022-12-24T10:44:30;101021.41;;;4.50;100.00
71666;BME280;59503;53.486;10.196;2022-12-24T10:46:57;101021.25;;;4.55;100.00
71666;BME280;59503;53.486;10.196;2022-12-24T10:49:42;101021.44;;;4.58;100.00
71666;BME280;59503;53.486;10.196;2022-12-24T10:52:21;101016.81;;;4.59;100.00
71666;BME280;59503;53.486;10.196;2022-12-24T10:57:29;101008.13;;;4.53;100.00
71666;BME280;59503;53.486;10.196;2022-12-24T10:59:55;101021.75;;;4.57;100.00
71666;BME280;59503;53.486;10.196;2022-12-24T11:02:37;101024.44;;;4.57;100.00
71666;BME280;59503;53.486;10.196;2022-12-24T11:05:26;101030.41;;;4.54;100.00
71666;BME280;59503;53.486;10.196;2022-12-24T11:07:59;101026.81;;;4.58;100.00
71666;BME280;59503;53.486;10.196;2022-12-24T11:10:25;101037.25;;;4.60;100.00
71666;BME280;59503;53.486;10.196;2022-12-24T11:12:51;101027.41;;;4.55;100.00
71666;BME280;59503;53.486;10.196;2022-12-24T11:15:21;101026.00;;;4.49;100.00
71666;BME280;59503;53.486;10.196;2022-12-24T11:17:56;101009.66;;;4.46;100.00
71666;BME280;59503;53.486;10.196;2022-12-24T11:20:26;101021.91;;;4.52;100.00
71666;BME280;59503;53.486;10.196;2022-12-24T11:22:52;101030.59;;;4.57;100.00
71666;BME280;59503;53.486;10.196;2022-12-24T11:25:21;101030.59;;;4.57;100.00
71666;BME280;59503;53.486;10.196;2022-12-24T11:27:47;101025.38;;;4.61;100.00
71666;BME280;59503;53.486;10.196;2022-12-24T11:32:45;101026.81;;;4.67;100.00
71666;BME280;59503;53.486;10.196;2022-12-24T11:35:20;101038.53;;;4.79;100.00
71666;BME280;59503;53.486;10.196;2022-12-24T11:40:40;101041.72;;;4.81;100.00
71666;BME280;59503;53.486;10.196;2022-12-24T11:43:14;101039.66;;;4.87;100.00
71666;BME280;59503;53.486;10.196;2022-12-24T11:45:47;101023.34;;;4.83;100.00
71666;BME280;59503;53.486;10.196;2022-12-24T11:48:31;101026.66;;;4.89;100.00
71666;BME280;59503;53.486;10.196;2022-12-24T11:51:22;101026.97;;;4.87;100.00
71666;BME280;59503;53.486;10.196;2022-12-24T11:56:35;101032.84;;;4.98;100.00
71666;BME280;59503;53.486;10.196;2022-12-24T12:01:38;101027.31;;;5.03;100.00
71666;BME280;59503;53.486;10.196;2022-12-24T12:06:51;101021.75;;;5.17;100.00
71666;BME280;59503;53.486;10.196;2022-12-24T12:12:26;101022.53;;;5.34;100.00
71666;BME280;59503;53.486;10.196;2022-12-24T12:15:00;101011.59;;;5.39;100.00
71666;BME280;59503;53.486;10.196;2022-12-24T12:17:56;101009.66;;;5.40;100.00
71666;BME280;59503;53.486;10.196;2022-12-24T12:20:30;101026.63;;;5.40;100.00
71666;BME280;59503;53.486;10.196;2022-12-24T12:23:18;101033.59;;;5.50;100.00
71666;BME280;59503;53.486;10.196;2022-12-24T12:25:59;101037.03;;;5.67;100.00
71666;BME280;59503;53.486;10.196;2022-12-24T12:28:46;101043.66;;;5.78;100.00
71666;BME280;59503;53.486;10.196;2022-12-24T12:31:27;101047.47;;;5.77;100.00
71666;BME280;59503;53.486;10.196;2022-12-24T12:34:16;101043.06;;;5.73;100.00
71666;BME280;59503;53.486;10.196;2022-12-24T12:36:47;101046.53;;;5.73;100.00
71666;BME280;59503;53.486;10.196;2022-12-24T12:39:14;101027.31;;;5.75;100.00
71666;BME280;59503;53.486;10.196;2022-12-24T12:41:58;101034.66;;;5.74;100.00
71666;BME280;59503;53.486;10.196;2022-12-24T12:44:53;101043.00;;;5.81;100.00
71666;BME280;59503;53.486;10.196;2022-12-24T12:50:22;101042.09;;;5.77;100.00
71666;BME280;59503;53.486;10.196;2022-12-24T12:53:15;101037.19;;;5.71;100.00
71666;BME280;59503;53.486;10.196;2022-12-24T12:58:36;101054.44;;;5.78;100.00
71666;BME280;59503;53.486;10.196;2022-12-24T13:01:19;101061.78;;;5.69;100.00
71666;BME280;59503;53.486;10.196;2022-12-24T13:06:42;101071.63;;;5.65;100.00
71666;BME280;59503;53.486;10.196;2022-12-24T13:15:01;101074.00;;;5.58;100.00
71666;BME280;59503;53.486;10.196;2022-12-24T13:20:28;101082.41;;;5.57;100.00
71666;BME280;59503;53.486;10.196;2022-12-24T13:23:09;101076.41;;;5.51;100.00
71666;BME280;59503;53.486;10.196;2022-12-24T13:25:40;101095.41;;;5.63;100.00
71666;BME280;59503;53.486;10.196;2022-12-24T13:36:11;101111.44;;;5.85;100.00
71666;BME280;59503;53.486;10.196;2022-12-24T13:49:21;101140.13;;;5.98;100.00
71666;BME280;59503;53.486;10.196;2022-12-24T13:51:49;101138.56;;;5.97;100.00
71666;BME280;59503;53.486;10.196;2022-12-24T13:54:18;101139.03;;;5.99;100.00
71666;BME280;59503;53.486;10.196;2022-12-24T13:56:46;101133.16;;;5.97;100.00
71666;BME280;59503;53.486;10.196;2022-12-24T13:59:35;101147.13;;;5.99;100.00
71666;BME280;59503;53.486;10.196;2022-12-24T14:02:02;101138.25;;;5.90;100.00
71666;BME280;59503;53.486;10.196;2022-12-24T14:04:32;101142.66;;;5.95;100.00
71666;BME280;59503;53.486;10.196;2022-12-24T14:07:02;101138.25;;;5.90;100.00
71666;BME280;59503;53.486;10.196;2022-12-24T14:09:29;101136.50;;;5.86;100.00
71666;BME280;59503;53.486;10.196;2022-12-24T14:14:36;101137.41;;;5.81;100.00
71666;BME280;59503;53.486;10.196;2022-12-24T14:17:30;101137.28;;;5.78;100.00
71666;BME280;59503;53.486;10.196;2022-12-24T14:19:59;101145.22;;;5.74;100.00
71666;BME280;59503;53.486;10.196;2022-12-24T14:22:33;101146.81;;;5.75;100.00
71666;BME280;59503;53.486;10.196;2022-12-24T14:27:39;101145.06;;;5.71;100.00
71666;BME280;59503;53.486;10.196;2022-12-24T14:30:16;101141.91;;;5.69;100.00